Mont Saint Michel — FNMT — position and weather

sailwx.info

Track history (hours):
 
Tides and Currents Weather Stations Pressure Air Temp Water Temp Dewpoint Dewpoint Depression Visibility Wind Speed Wind Dir Waves Ship Positions

Mont Saint Michel

Last reported at 2019-Dec-08 11:00 UTC. Time now 2019-Dec-08 11:24 UTC.
Position N 50°06' W 000°48'.

Length 173 m; beam 29 m.

Type: Ship. MMSI: 227023100.

Date/timePositionNaut miles runAvg speedWind from/ knotsBaromVisibWave heightAir tempDewpointWater temp
2019-Dec-08 11:00N 50°06' W 000°48'2319.6
2019-Dec-08 09:51N 50°27' W 001°02'1517.8
2019-Dec-08 09:00N 50°42' W 001°03'31 5.6
2019-Dec-08 03:30N 50°12' W 000°49'611.6
2019-Dec-08 03:00N 50°07' W 000°47'5 9.7
2019-Dec-08 02:30N 50°02' W 000°46'1010.1
2019-Dec-08 01:30N 49°52' W 000°42'1711.0
2019-Dec-08 00:00N 49°37' W 000°32'611.7
2019-Dec-07 23:30N 49°32' W 000°27'17 8.3
2019-Dec-07 21:30N 49°17' W 000°15'0 0.0
2019-Dec-07 20:30N 49°17' W 000°15'9118.2
2019-Dec-07 15:31N 50°43' W 001°02'6 5.9
2019-Dec-07 14:30N 50°49' W 001°06'0 0.0
2019-Dec-07 14:00N 50°49' W 001°06'3911.0
2019-Dec-07 10:30N 50°13' W 000°44'1919.4
2019-Dec-07 09:30N 49°55' W 000°33'1919.4
2019-Dec-07 08:30N 49°36' W 000°23'2013.1
2019-Dec-07 07:00N 49°17' W 000°15'0 0.0
2019-Dec-07 06:30N 49°17' W 000°15'13 6.6
2019-Dec-07 04:30N 49°30' W 000°22'1812.0
2019-Dec-07 03:00N 49°46' W 000°34'4414.4
2019-Dec-06 23:55N 50°26' W 001°05'615.3
2019-Dec-06 23:30N 50°31' W 001°09'17 8.7
2019-Dec-06 21:30N 50°49' W 001°06'0 0.0
2019-Dec-06 21:00N 50°49' W 001°06'0 0.0
2019-Dec-06 20:00N 50°49' W 001°06'0 0.0
2019-Dec-06 19:30N 50°49' W 001°06'1610.7
2019-Dec-06 18:01N 50°34' W 000°56'2316.8
2019-Dec-06 16:39N 50°13' W 000°43'1116.4
2019-Dec-06 16:00N 50°03' W 000°37'2416.2
2019-Dec-06 14:31N 49°40' W 000°25'815.7
2019-Dec-06 14:01N 49°33' W 000°21'1515.1
2019-Dec-06 13:00N 49°18' W 000°15'1 1.1
2019-Dec-06 12:30N 49°17' W 000°15'0 0.0
2019-Dec-06 12:00N 49°17' W 000°15'0 0.0
2019-Dec-06 11:00N 49°17' W 000°15'0 0.0
2019-Dec-06 07:00N 49°17' W 000°15'0 0.0
2019-Dec-06 06:30N 49°17' W 000°15'2211.2
2019-Dec-06 04:31N 49°39' W 000°24'3313.1
2019-Dec-06 02:00N 50°10' W 000°40'4212.0
2019-Dec-05 22:30N 50°49' W 001°06'24 8.1
2019-Dec-05 19:30N 50°27' W 000°49'1918.6
2019-Dec-05 18:30N 50°10' W 000°37'1918.8
2019-Dec-05 17:30N 49°52' W 000°27'1919.0
2019-Dec-05 16:30N 49°34' W 000°19'1716.9
2019-Dec-05 15:31N 49°17' W 000°15'3 1.6
2019-Dec-05 13:30N 49°21' W 000°14'917.8
2019-Dec-05 13:00N 49°29' W 000°20'7619.1
2019-Dec-05 09:00N 50°40' W 001°00'4 1.4
2019-Dec-05 06:00N 50°44' W 001°04'815.7
2019-Dec-05 05:30N 50°37' W 000°59'816.0
2019-Dec-05 05:00N 50°29' W 000°54'3612.0
2019-Dec-05 02:00N 49°56' W 000°34'1211.6
2019-Dec-05 01:00N 49°45' W 000°28'8 1.3
2019-Dec-04 19:01N 49°38' W 000°24'3918.6
2019-Dec-04 16:56N 50°14' W 000°45'21 4.2
2019-Dec-04 12:01N 50°33' W 000°57'4819.1
2019-Dec-04 09:31N 49°49' W 000°30'1919.3
2019-Dec-04 08:31N 49°31' W 000°20'14 6.8
2019-Dec-04 06:30N 49°17' W 000°15'0 0.1
2019-Dec-04 05:31N 49°17' W 000°15'816.3
2019-Dec-04 05:01N 49°25' W 000°17'1413.6
2019-Dec-04 04:01N 49°38' W 000°25'816.3
2019-Dec-04 03:30N 49°46' W 000°29'1616.3
2019-Dec-04 02:30N 50°01' W 000°38'816.1
2019-Dec-04 02:00N 50°08' W 000°43'2415.9
2019-Dec-04 00:30N 50°31' W 000°55'1514.8
2019-Dec-03 23:30N 50°44' W 001°04'4 2.2
2019-Dec-03 21:31N 50°49' W 001°06'2 3.1
2019-Dec-03 21:01N 50°47' W 001°06'5 9.2
2019-Dec-03 20:30N 50°44' W 001°02'713.9
2019-Dec-03 20:01N 50°37' W 000°58'5919.5
2019-Dec-03 17:00N 49°42' W 000°27'2612.9
2019-Dec-03 15:01N 49°17' W 000°15'1 0.8
2019-Dec-03 13:30N 49°19' W 000°15'3819.2
2019-Dec-03 11:30N 49°54' W 000°39'3919.5
2019-Dec-03 09:30N 50°31' W 000°59'918.6
2019-Dec-03 09:00N 50°39' W 001°04'714.2
2019-Dec-03 08:31N 50°46' W 001°06'2 2.4
2019-Dec-03 07:30N 50°49' W 001°06'0 0.1
2019-Dec-03 06:31N 50°49' W 001°06'1110.8
2019-Dec-03 05:30N 50°38' W 001°00'1212.4
2019-Dec-03 04:31N 50°27' W 000°52'1512.0
2019-Dec-03 03:15N 50°13' W 000°44'3111.4
2019-Dec-03 00:31N 49°43' W 000°30'1611.0
2019-Dec-02 23:01N 49°28' W 000°19'611.3
2019-Dec-02 22:31N 49°23' W 000°16'6 5.7
2019-Dec-02 21:31N 49°17' W 000°15'11 5.5
2019-Dec-02 19:30N 49°28' W 000°20'816.9
2019-Dec-02 19:00N 49°36' W 000°24'816.8
2019-Dec-02 18:31N 49°44' W 000°28'1817.8
2019-Dec-02 17:31N 50°00' W 000°38'1018.5
2019-Dec-02 16:58N 50°10' W 000°43'1918.8
2019-Dec-02 15:58N 50°27' W 000°54'23 7.7
2019-Dec-02 13:01N 50°49' W 001°06'2315.4
2019-Dec-02 11:30N 50°27' W 000°55'5418.1
2019-Dec-02 08:30N 49°36' W 000°26'1818.2
2019-Dec-02 07:30N 49°19' W 000°15'2 3.0
2019-Dec-02 07:00N 49°17' W 000°15'0 0.0
2019-Dec-02 06:00N 49°17' W 000°15'14 9.5
2019-Dec-02 04:31N 49°30' W 000°23'815.4
2019-Dec-02 04:00N 49°38' W 000°28'815.6
2019-Dec-02 03:31N 49°45' W 000°32'6215.4
2019-Dec-01 23:30N 50°43' W 001°03'8 2.4
2019-Dec-01 20:00N 50°36' W 000°56'2919.3
2019-Dec-01 18:30N 50°09' W 000°41'3919.5
2019-Dec-01 16:30N 49°32' W 000°21'1019.8
2019-Dec-01 16:00N 49°23' W 000°16'5 2.7
2019-Dec-01 14:00N 49°17' W 000°15'1312.7
2019-Dec-01 13:01N 49°30' W 000°20'1818.2
2019-Dec-01 12:00N 49°46' W 000°31'918.8
2019-Dec-01 11:30N 49°55' W 000°36'5518.3
2019-Dec-01 08:30N 50°47' W 001°06'9 3.1
2019-Dec-01 05:31N 50°38' W 000°60'714.5
2019-Dec-01 05:00N 50°31' W 000°56'1910.8
2019-Dec-01 03:13N 50°13' W 000°45'811.4
2019-Dec-01 02:30N 50°06' W 000°41'2911.4
2019-Dec-01 00:00N 49°39' W 000°23'1211.9
2019-Nov-30 23:00N 49°28' W 000°18'11 7.3
2019-Nov-30 21:30N 49°17' W 000°15'0 0.0
2019-Nov-30 20:30N 49°17' W 000°15'2013.1
2019-Nov-30 19:00N 49°36' W 000°25'917.6
2019-Nov-30 18:30N 49°44' W 000°30'6913.7
2019-Nov-30 13:30N 50°49' W 001°06'6 6.4
2019-Nov-30 12:31N 50°42' W 001°03'9012.9
2019-Nov-30 05:30N 49°18' W 000°15'713.8
2019-Nov-30 05:00N 49°24' W 000°17'1912.5
2019-Nov-30 03:31N 49°42' W 000°28'1010.3
2019-Nov-30 02:31N 49°51' W 000°34'1711.2
2019-Nov-30 01:00N 50°07' W 000°42'2914.7
2019-Nov-29 23:00N 50°35' W 000°56'15 9.8
2019-Nov-29 21:30N 50°49' W 001°06'0 0.0
2019-Nov-29 21:00N 50°49' W 001°06'0 0.0
2019-Nov-29 20:30N 50°49' W 001°06'0 0.0
2019-Nov-29 19:30N 50°49' W 001°06'14 9.5
2019-Nov-29 18:00N 50°36' W 000°56'2617.2
2019-Nov-29 16:30N 50°11' W 000°44'917.5
2019-Nov-29 16:00N 50°03' W 000°39'917.9
2019-Nov-29 15:30N 49°55' W 000°34'2717.9
2019-Nov-29 14:00N 49°30' W 000°18'13 6.4
2019-Nov-29 11:59N 49°17' W 000°15'0 0.0
2019-Nov-29 11:29N 49°17' W 000°15'0 0.0
2019-Nov-29 09:29N 49°17' W 000°15'0 0.0
2019-Nov-29 07:30N 49°17' W 000°15'0 0.0
2019-Nov-29 07:00N 49°17' W 000°15'0 0.0
2019-Nov-29 06:30N 49°17' W 000°15'14 9.4
2019-Nov-29 05:00N 49°31' W 000°21'714.5
2019-Nov-29 04:30N 49°38' W 000°25'1414.1
2019-Nov-29 03:30N 49°51' W 000°34'1413.9
2019-Nov-29 02:30N 50°03' W 000°42'713.9
2019-Nov-29 01:59N 50°10' W 000°46'2114.5
2019-Nov-29 00:30N 50°31' W 000°55'19 6.3
2019-Nov-28 21:30N 50°49' W 001°06'14 9.4
2019-Nov-28 20:01N 50°35' W 000°58'2519.2
2019-Nov-28 18:42N 50°12' W 000°46'1419.6
2019-Nov-28 18:00N 49°59' W 000°39'3020.1
2019-Nov-28 16:31N 49°31' W 000°21'1020.2
2019-Nov-28 16:01N 49°22' W 000°15'4 2.8
2019-Nov-28 14:30N 49°17' W 000°15'0 0.0
2019-Nov-28 14:00N 49°17' W 000°15'4 8.3
2019-Nov-28 13:30N 49°21' W 000°16'  
Track history (hours):
 
Tides and Currents Weather Stations Pressure Air Temp Water Temp Dewpoint Dewpoint Depression Visibility Wind Speed Wind Dir Waves Ship Positions

Mont Saint Michel

Last reported at 2019-Dec-08 11:00 UTC. Time now 2019-Dec-08 11:24 UTC.
Position N 50°06' W 000°48'.

Length 173 m; beam 29 m.

Type: Ship. MMSI: 227023100.

Date/timePositionNaut miles runAvg speedWind from/ knotsBaromVisibWave heightAir tempDewpointWater temp
2019-Dec-08 11:00N 50°06' W 000°48'2319.6
2019-Dec-08 09:51N 50°27' W 001°02'1517.8
2019-Dec-08 09:00N 50°42' W 001°03'31 5.6
2019-Dec-08 03:30N 50°12' W 000°49'611.6
2019-Dec-08 03:00N 50°07' W 000°47'5 9.7
2019-Dec-08 02:30N 50°02' W 000°46'1010.1
2019-Dec-08 01:30N 49°52' W 000°42'1711.0
2019-Dec-08 00:00N 49°37' W 000°32'611.7
2019-Dec-07 23:30N 49°32' W 000°27'17 8.3
2019-Dec-07 21:30N 49°17' W 000°15'0 0.0
2019-Dec-07 20:30N 49°17' W 000°15'9118.2
2019-Dec-07 15:31N 50°43' W 001°02'6 5.9
2019-Dec-07 14:30N 50°49' W 001°06'0 0.0
2019-Dec-07 14:00N 50°49' W 001°06'3911.0
2019-Dec-07 10:30N 50°13' W 000°44'1919.4
2019-Dec-07 09:30N 49°55' W 000°33'1919.4
2019-Dec-07 08:30N 49°36' W 000°23'2013.1
2019-Dec-07 07:00N 49°17' W 000°15'0 0.0
2019-Dec-07 06:30N 49°17' W 000°15'13 6.6
2019-Dec-07 04:30N 49°30' W 000°22'1812.0
2019-Dec-07 03:00N 49°46' W 000°34'4414.4
2019-Dec-06 23:55N 50°26' W 001°05'615.3
2019-Dec-06 23:30N 50°31' W 001°09'17 8.7
2019-Dec-06 21:30N 50°49' W 001°06'0 0.0
2019-Dec-06 21:00N 50°49' W 001°06'0 0.0
2019-Dec-06 20:00N 50°49' W 001°06'0 0.0
2019-Dec-06 19:30N 50°49' W 001°06'1610.7
2019-Dec-06 18:01N 50°34' W 000°56'2316.8
2019-Dec-06 16:39N 50°13' W 000°43'1116.4
2019-Dec-06 16:00N 50°03' W 000°37'2416.2
2019-Dec-06 14:31N 49°40' W 000°25'815.7
2019-Dec-06 14:01N 49°33' W 000°21'1515.1
2019-Dec-06 13:00N 49°18' W 000°15'1 1.1
2019-Dec-06 12:30N 49°17' W 000°15'0 0.0
2019-Dec-06 12:00N 49°17' W 000°15'0 0.0
2019-Dec-06 11:00N 49°17' W 000°15'0 0.0
2019-Dec-06 07:00N 49°17' W 000°15'0 0.0
2019-Dec-06 06:30N 49°17' W 000°15'2211.2
2019-Dec-06 04:31N 49°39' W 000°24'3313.1
2019-Dec-06 02:00N 50°10' W 000°40'4212.0
2019-Dec-05 22:30N 50°49' W 001°06'24 8.1
2019-Dec-05 19:30N 50°27' W 000°49'1918.6
2019-Dec-05 18:30N 50°10' W 000°37'1918.8
2019-Dec-05 17:30N 49°52' W 000°27'1919.0
2019-Dec-05 16:30N 49°34' W 000°19'1716.9
2019-Dec-05 15:31N 49°17' W 000°15'3 1.6
2019-Dec-05 13:30N 49°21' W 000°14'917.8
2019-Dec-05 13:00N 49°29' W 000°20'7619.1
2019-Dec-05 09:00N 50°40' W 001°00'4 1.4
2019-Dec-05 06:00N 50°44' W 001°04'815.7
2019-Dec-05 05:30N 50°37' W 000°59'816.0
2019-Dec-05 05:00N 50°29' W 000°54'3612.0
2019-Dec-05 02:00N 49°56' W 000°34'1211.6
2019-Dec-05 01:00N 49°45' W 000°28'8 1.3
2019-Dec-04 19:01N 49°38' W 000°24'3918.6
2019-Dec-04 16:56N 50°14' W 000°45'21 4.2
2019-Dec-04 12:01N 50°33' W 000°57'4819.1
2019-Dec-04 09:31N 49°49' W 000°30'1919.3
2019-Dec-04 08:31N 49°31' W 000°20'14 6.8
2019-Dec-04 06:30N 49°17' W 000°15'0 0.1
2019-Dec-04 05:31N 49°17' W 000°15'816.3
2019-Dec-04 05:01N 49°25' W 000°17'1413.6
2019-Dec-04 04:01N 49°38' W 000°25'816.3
2019-Dec-04 03:30N 49°46' W 000°29'1616.3
2019-Dec-04 02:30N 50°01' W 000°38'816.1
2019-Dec-04 02:00N 50°08' W 000°43'2415.9
2019-Dec-04 00:30N 50°31' W 000°55'1514.8
2019-Dec-03 23:30N 50°44' W 001°04'4 2.2
2019-Dec-03 21:31N 50°49' W 001°06'2 3.1
2019-Dec-03 21:01N 50°47' W 001°06'5 9.2
2019-Dec-03 20:30N 50°44' W 001°02'713.9
2019-Dec-03 20:01N 50°37' W 000°58'5919.5
2019-Dec-03 17:00N 49°42' W 000°27'2612.9
2019-Dec-03 15:01N 49°17' W 000°15'1 0.8
2019-Dec-03 13:30N 49°19' W 000°15'3819.2
2019-Dec-03 11:30N 49°54' W 000°39'3919.5
2019-Dec-03 09:30N 50°31' W 000°59'918.6
2019-Dec-03 09:00N 50°39' W 001°04'714.2
2019-Dec-03 08:31N 50°46' W 001°06'2 2.4
2019-Dec-03 07:30N 50°49' W 001°06'0 0.1
2019-Dec-03 06:31N 50°49' W 001°06'1110.8
2019-Dec-03 05:30N 50°38' W 001°00'1212.4
2019-Dec-03 04:31N 50°27' W 000°52'1512.0
2019-Dec-03 03:15N 50°13' W 000°44'3111.4
2019-Dec-03 00:31N 49°43' W 000°30'1611.0
2019-Dec-02 23:01N 49°28' W 000°19'611.3
2019-Dec-02 22:31N 49°23' W 000°16'6 5.7
2019-Dec-02 21:31N 49°17' W 000°15'11 5.5
2019-Dec-02 19:30N 49°28' W 000°20'816.9
2019-Dec-02 19:00N 49°36' W 000°24'816.8
2019-Dec-02 18:31N 49°44' W 000°28'1817.8
2019-Dec-02 17:31N 50°00' W 000°38'1018.5
2019-Dec-02 16:58N 50°10' W 000°43'1918.8
2019-Dec-02 15:58N 50°27' W 000°54'23 7.7
2019-Dec-02 13:01N 50°49' W 001°06'2315.4
2019-Dec-02 11:30N 50°27' W 000°55'5418.1
2019-Dec-02 08:30N 49°36' W 000°26'1818.2
2019-Dec-02 07:30N 49°19' W 000°15'2 3.0
2019-Dec-02 07:00N 49°17' W 000°15'0 0.0
2019-Dec-02 06:00N 49°17' W 000°15'14 9.5
2019-Dec-02 04:31N 49°30' W 000°23'815.4
2019-Dec-02 04:00N 49°38' W 000°28'815.6
2019-Dec-02 03:31N 49°45' W 000°32'6215.4
2019-Dec-01 23:30N 50°43' W 001°03'8 2.4
2019-Dec-01 20:00N 50°36' W 000°56'2919.3
2019-Dec-01 18:30N 50°09' W 000°41'3919.5
2019-Dec-01 16:30N 49°32' W 000°21'1019.8
2019-Dec-01 16:00N 49°23' W 000°16'5 2.7
2019-Dec-01 14:00N 49°17' W 000°15'1312.7
2019-Dec-01 13:01N 49°30' W 000°20'1818.2
2019-Dec-01 12:00N 49°46' W 000°31'918.8
2019-Dec-01 11:30N 49°55' W 000°36'5518.3
2019-Dec-01 08:30N 50°47' W 001°06'9 3.1
2019-Dec-01 05:31N 50°38' W 000°60'714.5
2019-Dec-01 05:00N 50°31' W 000°56'1910.8
2019-Dec-01 03:13N 50°13' W 000°45'811.4
2019-Dec-01 02:30N 50°06' W 000°41'2911.4
2019-Dec-01 00:00N 49°39' W 000°23'1211.9
2019-Nov-30 23:00N 49°28' W 000°18'11 7.3
2019-Nov-30 21:30N 49°17' W 000°15'0 0.0
2019-Nov-30 20:30N 49°17' W 000°15'2013.1
2019-Nov-30 19:00N 49°36' W 000°25'917.6
2019-Nov-30 18:30N 49°44' W 000°30'6913.7
2019-Nov-30 13:30N 50°49' W 001°06'6 6.4
2019-Nov-30 12:31N 50°42' W 001°03'9012.9
2019-Nov-30 05:30N 49°18' W 000°15'713.8
2019-Nov-30 05:00N 49°24' W 000°17'1912.5
2019-Nov-30 03:31N 49°42' W 000°28'1010.3
2019-Nov-30 02:31N 49°51' W 000°34'1711.2
2019-Nov-30 01:00N 50°07' W 000°42'2914.7
2019-Nov-29 23:00N 50°35' W 000°56'15 9.8
2019-Nov-29 21:30N 50°49' W 001°06'0 0.0
2019-Nov-29 21:00N 50°49' W 001°06'0 0.0
2019-Nov-29 20:30N 50°49' W 001°06'0 0.0
2019-Nov-29 19:30N 50°49' W 001°06'14 9.5
2019-Nov-29 18:00N 50°36' W 000°56'2617.2
2019-Nov-29 16:30N 50°11' W 000°44'917.5
2019-Nov-29 16:00N 50°03' W 000°39'917.9
2019-Nov-29 15:30N 49°55' W 000°34'2717.9
2019-Nov-29 14:00N 49°30' W 000°18'13 6.4
2019-Nov-29 11:59N 49°17' W 000°15'0 0.0
2019-Nov-29 11:29N 49°17' W 000°15'0 0.0
2019-Nov-29 09:29N 49°17' W 000°15'0 0.0
2019-Nov-29 07:30N 49°17' W 000°15'0 0.0
2019-Nov-29 07:00N 49°17' W 000°15'0 0.0
2019-Nov-29 06:30N 49°17' W 000°15'14 9.4
2019-Nov-29 05:00N 49°31' W 000°21'714.5
2019-Nov-29 04:30N 49°38' W 000°25'1414.1
2019-Nov-29 03:30N 49°51' W 000°34'1413.9
2019-Nov-29 02:30N 50°03' W 000°42'713.9
2019-Nov-29 01:59N 50°10' W 000°46'2114.5
2019-Nov-29 00:30N 50°31' W 000°55'19 6.3
2019-Nov-28 21:30N 50°49' W 001°06'14 9.4
2019-Nov-28 20:01N 50°35' W 000°58'2519.2
2019-Nov-28 18:42N 50°12' W 000°46'1419.6
2019-Nov-28 18:00N 49°59' W 000°39'3020.1
2019-Nov-28 16:31N 49°31' W 000°21'1020.2
2019-Nov-28 16:01N 49°22' W 000°15'4 2.8
2019-Nov-28 14:30N 49°17' W 000°15'0 0.0
2019-Nov-28 14:00N 49°17' W 000°15'4 8.3
2019-Nov-28 13:30N 49°21' W 000°16'  

Dump ship's entire track history